sensor_id;sensor_type;location;lat;lon;timestamp;temperature;humidity
1958;DHT22;979;51.076;13.748;2024-02-14T00:01:09;5.60;65.40
1958;DHT22;979;51.076;13.748;2024-02-14T00:03:56;5.30;64.70
1958;DHT22;979;51.076;13.748;2024-02-14T00:06:25;5.30;65.00
1958;DHT22;979;51.076;13.748;2024-02-14T00:08:54;5.40;65.30
1958;DHT22;979;51.076;13.748;2024-02-14T00:11:23;5.50;65.10
1958;DHT22;979;51.076;13.748;2024-02-14T00:13:58;5.50;65.30
1958;DHT22;979;51.076;13.748;2024-02-14T00:17:02;5.50;65.10
1958;DHT22;979;51.076;13.748;2024-02-14T00:19:32;5.50;65.00
1958;DHT22;979;51.076;13.748;2024-02-14T00:22:03;5.60;65.40
1958;DHT22;979;51.076;13.748;2024-02-14T00:27:20;5.60;65.10
1958;DHT22;979;51.076;13.748;2024-02-14T00:29:49;5.60;65.50
1958;DHT22;979;51.076;13.748;2024-02-14T00:32:32;5.70;65.60
1958;DHT22;979;51.076;13.748;2024-02-14T00:35:05;5.70;65.60
1958;DHT22;979;51.076;13.748;2024-02-14T00:37:37;5.70;65.60
1958;DHT22;979;51.076;13.748;2024-02-14T00:40:19;5.70;65.60
1958;DHT22;979;51.076;13.748;2024-02-14T00:42:48;5.70;65.90
1958;DHT22;979;51.076;13.748;2024-02-14T00:45:17;5.90;66.00
1958;DHT22;979;51.076;13.748;2024-02-14T00:47:52;6.00;66.30
1958;DHT22;979;51.076;13.748;2024-02-14T00:50:24;6.00;66.20
1958;DHT22;979;51.076;13.748;2024-02-14T00:52:54;5.80;66.00
1958;DHT22;979;51.076;13.748;2024-02-14T00:55:21;5.80;66.20
1958;DHT22;979;51.076;13.748;2024-02-14T00:57:51;5.80;66.00
1958;DHT22;979;51.076;13.748;2024-02-14T01:00:23;5.90;66.10
1958;DHT22;979;51.076;13.748;2024-02-14T01:02:55;6.10;66.50
1958;DHT22;979;51.076;13.748;2024-02-14T01:05:25;6.10;66.30
1958;DHT22;979;51.076;13.748;2024-02-14T01:07:54;6.00;66.20
1958;DHT22;979;51.076;13.748;2024-02-14T01:10:22;6.00;66.20
1958;DHT22;979;51.076;13.748;2024-02-14T01:12:51;6.00;66.10
1958;DHT22;979;51.076;13.748;2024-02-14T01:15:20;6.00;66.10
1958;DHT22;979;51.076;13.748;2024-02-14T01:17:49;6.20;66.30
1958;DHT22;979;51.076;13.748;2024-02-14T01:20:19;5.90;66.90
1958;DHT22;979;51.076;13.748;2024-02-14T01:22:48;5.80;66.00
1958;DHT22;979;51.076;13.748;2024-02-14T01:25:17;6.10;66.40
1958;DHT22;979;51.076;13.748;2024-02-14T01:27:47;5.80;65.90
1958;DHT22;979;51.076;13.748;2024-02-14T01:30:17;6.10;66.20
1958;DHT22;979;51.076;13.748;2024-02-14T01:32:46;5.90;66.40
1958;DHT22;979;51.076;13.748;2024-02-14T01:35:15;5.90;66.40
1958;DHT22;979;51.076;13.748;2024-02-14T01:37:45;5.90;66.20
1958;DHT22;979;51.076;13.748;2024-02-14T01:40:13;6.00;66.50
1958;DHT22;979;51.076;13.748;2024-02-14T01:42:43;6.00;66.10
1958;DHT22;979;51.076;13.748;2024-02-14T01:45:11;6.00;66.40
1958;DHT22;979;51.076;13.748;2024-02-14T01:47:39;6.00;66.30
1958;DHT22;979;51.076;13.748;2024-02-14T01:50:09;6.10;66.50
1958;DHT22;979;51.076;13.748;2024-02-14T01:52:39;5.90;66.30
1958;DHT22;979;51.076;13.748;2024-02-14T01:55:12;5.90;66.40
1958;DHT22;979;51.076;13.748;2024-02-14T01:57:40;5.80;66.40
1958;DHT22;979;51.076;13.748;2024-02-14T02:00:09;5.80;66.50
1958;DHT22;979;51.076;13.748;2024-02-14T02:02:42;5.80;66.50
1958;DHT22;979;51.076;13.748;2024-02-14T02:05:16;6.00;66.90
1958;DHT22;979;51.076;13.748;2024-02-14T02:07:47;5.90;66.90
1958;DHT22;979;51.076;13.748;2024-02-14T02:10:18;6.10;66.90
1958;DHT22;979;51.076;13.748;2024-02-14T02:12:48;5.80;66.80
1958;DHT22;979;51.076;13.748;2024-02-14T02:15:17;5.80;66.70
1958;DHT22;979;51.076;13.748;2024-02-14T02:17:47;5.80;66.80
1958;DHT22;979;51.076;13.748;2024-02-14T02:20:20;5.80;66.60
1958;DHT22;979;51.076;13.748;2024-02-14T02:22:50;5.70;67.00
1958;DHT22;979;51.076;13.748;2024-02-14T02:25:19;5.90;67.00
1958;DHT22;979;51.076;13.748;2024-02-14T02:27:52;5.70;66.70
1958;DHT22;979;51.076;13.748;2024-02-14T02:30:20;5.60;66.60
1958;DHT22;979;51.076;13.748;2024-02-14T02:32:49;5.80;67.00
1958;DHT22;979;51.076;13.748;2024-02-14T02:35:18;5.70;67.00
1958;DHT22;979;51.076;13.748;2024-02-14T02:37:49;5.80;67.20
1958;DHT22;979;51.076;13.748;2024-02-14T02:40:19;5.70;66.90
1958;DHT22;979;51.076;13.748;2024-02-14T02:42:48;5.70;67.00
1958;DHT22;979;51.076;13.748;2024-02-14T02:45:17;5.80;67.30
1958;DHT22;979;51.076;13.748;2024-02-14T02:47:48;5.70;67.10
1958;DHT22;979;51.076;13.748;2024-02-14T02:50:19;5.70;67.00
1958;DHT22;979;51.076;13.748;2024-02-14T02:52:50;5.90;67.50
1958;DHT22;979;51.076;13.748;2024-02-14T02:55:19;5.70;67.20
1958;DHT22;979;51.076;13.748;2024-02-14T02:57:48;5.70;67.30
1958;DHT22;979;51.076;13.748;2024-02-14T03:00:17;5.70;67.20
1958;DHT22;979;51.076;13.748;2024-02-14T03:02:49;5.70;67.20
1958;DHT22;979;51.076;13.748;2024-02-14T03:05:18;5.70;67.40
1958;DHT22;979;51.076;13.748;2024-02-14T03:07:52;5.80;67.50
1958;DHT22;979;51.076;13.748;2024-02-14T03:10:23;6.00;67.80
1958;DHT22;979;51.076;13.748;2024-02-14T03:12:52;5.80;67.50
1958;DHT22;979;51.076;13.748;2024-02-14T03:15:22;6.10;67.60
1958;DHT22;979;51.076;13.748;2024-02-14T03:17:53;5.80;67.50
1958;DHT22;979;51.076;13.748;2024-02-14T03:20:22;5.90;67.60
1958;DHT22;979;51.076;13.748;2024-02-14T03:22:52;5.90;67.60
1958;DHT22;979;51.076;13.748;2024-02-14T03:25:21;6.10;67.80
1958;DHT22;979;51.076;13.748;2024-02-14T03:27:50;6.00;67.50
1958;DHT22;979;51.076;13.748;2024-02-14T03:30:20;5.90;67.30
1958;DHT22;979;51.076;13.748;2024-02-14T03:32:50;5.90;67.30
1958;DHT22;979;51.076;13.748;2024-02-14T03:35:19;5.90;67.30
1958;DHT22;979;51.076;13.748;2024-02-14T03:37:49;6.00;67.60
1958;DHT22;979;51.076;13.748;2024-02-14T03:40:21;5.90;68.30
1958;DHT22;979;51.076;13.748;2024-02-14T03:42:57;6.00;68.10
1958;DHT22;979;51.076;13.748;2024-02-14T03:45:25;6.10;67.90
1958;DHT22;979;51.076;13.748;2024-02-14T03:47:56;5.90;67.60
1958;DHT22;979;51.076;13.748;2024-02-14T03:50:25;6.20;68.00
1958;DHT22;979;51.076;13.748;2024-02-14T03:52:56;6.30;68.00
1958;DHT22;979;51.076;13.748;2024-02-14T03:55:26;6.10;67.70
1958;DHT22;979;51.076;13.748;2024-02-14T03:57:57;6.10;67.90
1958;DHT22;979;51.076;13.748;2024-02-14T04:00:28;6.20;67.80
1958;DHT22;979;51.076;13.748;2024-02-14T04:03:00;6.20;67.70
1958;DHT22;979;51.076;13.748;2024-02-14T04:05:29;6.20;67.80
1958;DHT22;979;51.076;13.748;2024-02-14T04:07:59;6.40;68.00
1958;DHT22;979;51.076;13.748;2024-02-14T04:10:32;6.30;68.10
1958;DHT22;979;51.076;13.748;2024-02-14T04:13:01;6.30;67.80
1958;DHT22;979;51.076;13.748;2024-02-14T04:15:30;6.30;68.10
1958;DHT22;979;51.076;13.748;2024-02-14T04:17:59;6.30;67.80
1958;DHT22;979;51.076;13.748;2024-02-14T04:20:34;6.40;68.20
1958;DHT22;979;51.076;13.748;2024-02-14T04:23:03;6.60;68.20
1958;DHT22;979;51.076;13.748;2024-02-14T04:25:36;6.60;68.10
1958;DHT22;979;51.076;13.748;2024-02-14T04:28:05;6.50;67.70
1958;DHT22;979;51.076;13.748;2024-02-14T04:30:33;6.40;67.60
1958;DHT22;979;51.076;13.748;2024-02-14T04:33:03;6.50;67.90
1958;DHT22;979;51.076;13.748;2024-02-14T04:35:39;6.50;67.70
1958;DHT22;979;51.076;13.748;2024-02-14T04:38:10;6.50;67.80
1958;DHT22;979;51.076;13.748;2024-02-14T04:40:40;6.50;67.80
1958;DHT22;979;51.076;13.748;2024-02-14T04:43:09;6.40;67.80
1958;DHT22;979;51.076;13.748;2024-02-14T04:45:38;6.70;68.00
1958;DHT22;979;51.076;13.748;2024-02-14T04:48:09;6.60;68.00
1958;DHT22;979;51.076;13.748;2024-02-14T04:50:38;6.30;67.60
1958;DHT22;979;51.076;13.748;2024-02-14T04:53:07;6.10;67.50
1958;DHT22;979;51.076;13.748;2024-02-14T04:55:35;6.30;67.60
1958;DHT22;979;51.076;13.748;2024-02-14T04:58:06;6.50;68.60
1958;DHT22;979;51.076;13.748;2024-02-14T05:00:34;6.20;67.70
1958;DHT22;979;51.076;13.748;2024-02-14T05:03:03;6.30;67.80
1958;DHT22;979;51.076;13.748;2024-02-14T05:05:32;6.10;68.00
1958;DHT22;979;51.076;13.748;2024-02-14T05:08:02;6.10;68.00
1958;DHT22;979;51.076;13.748;2024-02-14T05:10:31;6.10;67.90
1958;DHT22;979;51.076;13.748;2024-02-14T05:13:00;6.10;68.00
1958;DHT22;979;51.076;13.748;2024-02-14T05:15:31;6.00;68.00
1958;DHT22;979;51.076;13.748;2024-02-14T05:18:03;6.00;68.00
1958;DHT22;979;51.076;13.748;2024-02-14T05:20:33;6.00;68.00
1958;DHT22;979;51.076;13.748;2024-02-14T05:23:01;6.00;68.10
1958;DHT22;979;51.076;13.748;2024-02-14T05:25:30;6.20;68.20
1958;DHT22;979;51.076;13.748;2024-02-14T05:27:59;6.00;68.10
1958;DHT22;979;51.076;13.748;2024-02-14T05:30:28;6.00;68.00
1958;DHT22;979;51.076;13.748;2024-02-14T05:33:00;6.10;68.00
1958;DHT22;979;51.076;13.748;2024-02-14T05:35:29;6.20;68.20
1958;DHT22;979;51.076;13.748;2024-02-14T05:37:58;6.30;68.50
1958;DHT22;979;51.076;13.748;2024-02-14T05:40:26;6.10;68.40
1958;DHT22;979;51.076;13.748;2024-02-14T05:42:58;6.10;68.40
1958;DHT22;979;51.076;13.748;2024-02-14T05:45:27;6.10;68.30
1958;DHT22;979;51.076;13.748;2024-02-14T05:47:56;6.20;68.30
1958;DHT22;979;51.076;13.748;2024-02-14T05:50:27;6.30;68.30
1958;DHT22;979;51.076;13.748;2024-02-14T05:52:56;6.50;68.40
1958;DHT22;979;51.076;13.748;2024-02-14T05:55:25;6.30;68.30
1958;DHT22;979;51.076;13.748;2024-02-14T05:57:54;6.30;68.40
1958;DHT22;979;51.076;13.748;2024-02-14T06:00:24;6.50;68.50
1958;DHT22;979;51.076;13.748;2024-02-14T06:02:55;6.50;68.30
1958;DHT22;979;51.076;13.748;2024-02-14T06:05:24;6.70;68.50
1958;DHT22;979;51.076;13.748;2024-02-14T06:07:54;6.50;68.30
1958;DHT22;979;51.076;13.748;2024-02-14T06:10:22;6.60;68.50
1958;DHT22;979;51.076;13.748;2024-02-14T06:12:52;6.60;68.50
1958;DHT22;979;51.076;13.748;2024-02-14T06:15:23;6.60;68.40
1958;DHT22;979;51.076;13.748;2024-02-14T06:17:52;6.90;68.80
1958;DHT22;979;51.076;13.748;2024-02-14T06:20:23;6.70;68.30
1958;DHT22;979;51.076;13.748;2024-02-14T06:22:54;6.70;68.40
1958;DHT22;979;51.076;13.748;2024-02-14T06:25:31;6.70;68.50
1958;DHT22;979;51.076;13.748;2024-02-14T06:28:00;6.80;68.60
1958;DHT22;979;51.076;13.748;2024-02-14T06:30:29;6.80;68.40
1958;DHT22;979;51.076;13.748;2024-02-14T06:33:00;7.00;68.60
1958;DHT22;979;51.076;13.748;2024-02-14T06:35:30;7.00;68.70
1958;DHT22;979;51.076;13.748;2024-02-14T06:38:01;7.20;68.80
1958;DHT22;979;51.076;13.748;2024-02-14T06:40:32;7.10;68.80
1958;DHT22;979;51.076;13.748;2024-02-14T06:43:01;7.10;68.70
1958;DHT22;979;51.076;13.748;2024-02-14T06:45:30;7.10;68.80
1958;DHT22;979;51.076;13.748;2024-02-14T06:47:59;7.20;68.50
1958;DHT22;979;51.076;13.748;2024-02-14T06:50:28;7.50;68.90
1958;DHT22;979;51.076;13.748;2024-02-14T06:52:57;7.30;68.70
1958;DHT22;979;51.076;13.748;2024-02-14T06:55:29;7.30;68.60
1958;DHT22;979;51.076;13.748;2024-02-14T06:58:03;7.40;68.70
1958;DHT22;979;51.076;13.748;2024-02-14T07:00:32;7.30;69.00
1958;DHT22;979;51.076;13.748;2024-02-14T07:03:02;7.50;68.60
1958;DHT22;979;51.076;13.748;2024-02-14T07:05:31;7.80;68.90
1958;DHT22;979;51.076;13.748;2024-02-14T07:07:59;7.60;68.70
1958;DHT22;979;51.076;13.748;2024-02-14T07:10:30;7.60;68.50
1958;DHT22;979;51.076;13.748;2024-02-14T07:12:59;7.60;68.40
1958;DHT22;979;51.076;13.748;2024-02-14T07:15:29;7.70;68.60
1958;DHT22;979;51.076;13.748;2024-02-14T07:17:58;7.70;68.50
1958;DHT22;979;51.076;13.748;2024-02-14T07:20:28;7.80;68.70
1958;DHT22;979;51.076;13.748;2024-02-14T07:22:57;8.00;69.00
1958;DHT22;979;51.076;13.748;2024-02-14T07:25:27;7.90;68.60
1958;DHT22;979;51.076;13.748;2024-02-14T07:27:59;8.00;68.80
1958;DHT22;979;51.076;13.748;2024-02-14T07:30:31;8.00;68.50
1958;DHT22;979;51.076;13.748;2024-02-14T07:33:00;8.10;68.70
1958;DHT22;979;51.076;13.748;2024-02-14T07:35:33;8.10;68.70
1958;DHT22;979;51.076;13.748;2024-02-14T07:38:01;8.20;68.60
1958;DHT22;979;51.076;13.748;2024-02-14T07:40:31;8.20;68.40
1958;DHT22;979;51.076;13.748;2024-02-14T07:43:02;8.30;68.50
1958;DHT22;979;51.076;13.748;2024-02-14T07:45:33;8.30;68.50
1958;DHT22;979;51.076;13.748;2024-02-14T07:48:02;8.70;68.80
1958;DHT22;979;51.076;13.748;2024-02-14T07:50:31;8.60;68.50
1958;DHT22;979;51.076;13.748;2024-02-14T07:53:01;8.70;68.80
1958;DHT22;979;51.076;13.748;2024-02-14T07:55:30;8.80;68.60
1958;DHT22;979;51.076;13.748;2024-02-14T07:58:01;8.90;68.50
1958;DHT22;979;51.076;13.748;2024-02-14T08:00:30;9.00;68.40
1958;DHT22;979;51.076;13.748;2024-02-14T08:02:59;9.10;68.30
1958;DHT22;979;51.076;13.748;2024-02-14T08:05:30;9.30;68.50
1958;DHT22;979;51.076;13.748;2024-02-14T08:08:00;9.30;68.40
1958;DHT22;979;51.076;13.748;2024-02-14T08:10:29;9.50;68.50
1958;DHT22;979;51.076;13.748;2024-02-14T08:12:58;9.60;68.20
1958;DHT22;979;51.076;13.748;2024-02-14T08:15:28;9.70;68.50
1958;DHT22;979;51.076;13.748;2024-02-14T08:17:58;9.80;68.20
1958;DHT22;979;51.076;13.748;2024-02-14T08:20:35;9.80;67.90
1958;DHT22;979;51.076;13.748;2024-02-14T08:23:06;9.90;67.80
1958;DHT22;979;51.076;13.748;2024-02-14T08:25:38;9.80;67.50
1958;DHT22;979;51.076;13.748;2024-02-14T08:28:12;10.00;66.10
1958;DHT22;979;51.076;13.748;2024-02-14T08:30:47;10.00;66.00
1958;DHT22;979;51.076;13.748;2024-02-14T08:36:51;10.00;65.90
1958;DHT22;979;51.076;13.748;2024-02-14T08:39:23;10.30;66.10
1958;DHT22;979;51.076;13.748;2024-02-14T08:41:57;10.40;66.30
1958;DHT22;979;51.076;13.748;2024-02-14T08:44:29;10.40;66.10
1958;DHT22;979;51.076;13.748;2024-02-14T08:47:08;10.40;65.90
1958;DHT22;979;51.076;13.748;2024-02-14T08:49:46;10.40;65.60
1958;DHT22;979;51.076;13.748;2024-02-14T08:52:26;10.50;65.70
1958;DHT22;979;51.076;13.748;2024-02-14T08:54:58;10.50;65.80
1958;DHT22;979;51.076;13.748;2024-02-14T08:57:37;10.60;66.10
1958;DHT22;979;51.076;13.748;2024-02-14T09:00:07;10.60;65.60
1958;DHT22;979;51.076;13.748;2024-02-14T09:02:39;10.60;65.50
1958;DHT22;979;51.076;13.748;2024-02-14T09:05:08;10.80;66.00
1958;DHT22;979;51.076;13.748;2024-02-14T09:07:42;10.90;66.10
1958;DHT22;979;51.076;13.748;2024-02-14T09:10:11;11.00;66.10
1958;DHT22;979;51.076;13.748;2024-02-14T09:12:49;11.00;66.30
1958;DHT22;979;51.076;13.748;2024-02-14T09:15:17;11.10;65.90
1958;DHT22;979;51.076;13.748;2024-02-14T09:18:09;11.30;66.30
1958;DHT22;979;51.076;13.748;2024-02-14T09:20:38;11.30;65.80
1958;DHT22;979;51.076;13.748;2024-02-14T09:23:08;11.40;65.90
1958;DHT22;979;51.076;13.748;2024-02-14T09:25:38;11.40;65.90
1958;DHT22;979;51.076;13.748;2024-02-14T09:28:08;11.50;65.80
1958;DHT22;979;51.076;13.748;2024-02-14T09:30:49;11.70;65.90
1958;DHT22;979;51.076;13.748;2024-02-14T09:37:20;11.60;65.00
1958;DHT22;979;51.076;13.748;2024-02-14T09:39:49;11.80;65.30
1958;DHT22;979;51.076;13.748;2024-02-14T09:42:24;11.80;65.30
1958;DHT22;979;51.076;13.748;2024-02-14T09:44:58;11.90;65.30
1958;DHT22;979;51.076;13.748;2024-02-14T09:47:30;11.90;65.30
1958;DHT22;979;51.076;13.748;2024-02-14T09:50:09;12.00;65.50
1958;DHT22;979;51.076;13.748;2024-02-14T09:52:44;12.10;65.50
1958;DHT22;979;51.076;13.748;2024-02-14T09:55:20;12.10;65.10
1958;DHT22;979;51.076;13.748;2024-02-14T09:57:53;12.20;65.20
1958;DHT22;979;51.076;13.748;2024-02-14T10:00:26;12.20;65.20
1958;DHT22;979;51.076;13.748;2024-02-14T10:02:55;12.10;64.70
1958;DHT22;979;51.076;13.748;2024-02-14T10:05:34;12.30;65.10
1958;DHT22;979;51.076;13.748;2024-02-14T10:08:19;12.40;64.90
1958;DHT22;979;51.076;13.748;2024-02-14T10:11:02;12.40;65.10
1958;DHT22;979;51.076;13.748;2024-02-14T10:16:19;12.50;65.10
1958;DHT22;979;51.076;13.748;2024-02-14T10:18:52;12.50;65.20
1958;DHT22;979;51.076;13.748;2024-02-14T10:21:23;12.50;65.20
1958;DHT22;979;51.076;13.748;2024-02-14T10:24:04;12.50;65.20
1958;DHT22;979;51.076;13.748;2024-02-14T10:26:40;12.60;65.00
1958;DHT22;979;51.076;13.748;2024-02-14T10:32:48;12.60;64.80
1958;DHT22;979;51.076;13.748;2024-02-14T10:35:20;12.60;64.60
1958;DHT22;979;51.076;13.748;2024-02-14T10:37:58;12.50;64.80
1958;DHT22;979;51.076;13.748;2024-02-14T10:40:47;12.60;64.70
1958;DHT22;979;51.076;13.748;2024-02-14T10:43:57;12.60;64.80
1958;DHT22;979;51.076;13.748;2024-02-14T10:46:40;12.40;64.70
1958;DHT22;979;51.076;13.748;2024-02-14T10:55:58;12.30;64.60
1958;DHT22;979;51.076;13.748;2024-02-14T10:58:33;12.40;65.30
1958;DHT22;979;51.076;13.748;2024-02-14T11:01:20;12.50;65.50
1958;DHT22;979;51.076;13.748;2024-02-14T11:04:16;12.50;65.30
1958;DHT22;979;51.076;13.748;2024-02-14T11:07:27;12.70;65.50
1958;DHT22;979;51.076;13.748;2024-02-14T11:10:01;12.70;65.70
1958;DHT22;979;51.076;13.748;2024-02-14T11:12:58;12.80;66.00
1958;DHT22;979;51.076;13.748;2024-02-14T11:15:35;13.00;66.60
1958;DHT22;979;51.076;13.748;2024-02-14T11:18:28;13.30;66.90
1958;DHT22;979;51.076;13.748;2024-02-14T11:21:18;13.20;66.20
1958;DHT22;979;51.076;13.748;2024-02-14T11:24:27;13.20;66.70
1958;DHT22;979;51.076;13.748;2024-02-14T11:27:02;13.30;66.60
1958;DHT22;979;51.076;13.748;2024-02-14T11:30:11;13.40;67.10
1958;DHT22;979;51.076;13.748;2024-02-14T11:34:10;13.60;67.20
1958;DHT22;979;51.076;13.748;2024-02-14T11:37:10;13.50;67.10
1958;DHT22;979;51.076;13.748;2024-02-14T11:40:25;14.00;67.30
1958;DHT22;979;51.076;13.748;2024-02-14T11:42:57;14.00;67.60
1958;DHT22;979;51.076;13.748;2024-02-14T11:45:30;14.10;67.60
1958;DHT22;979;51.076;13.748;2024-02-14T11:52:27;14.40;67.20
1958;DHT22;979;51.076;13.748;2024-02-14T11:55:39;14.50;67.30
1958;DHT22;979;51.076;13.748;2024-02-14T11:58:47;14.60;67.20
1958;DHT22;979;51.076;13.748;2024-02-14T12:04:16;14.70;67.80
1958;DHT22;979;51.076;13.748;2024-02-14T12:06:56;14.60;66.70
1958;DHT22;979;51.076;13.748;2024-02-14T12:09:31;14.60;67.00
1958;DHT22;979;51.076;13.748;2024-02-14T12:12:15;14.60;67.20
1958;DHT22;979;51.076;13.748;2024-02-14T12:17:56;14.50;66.40
1958;DHT22;979;51.076;13.748;2024-02-14T12:20:26;14.50;66.50
1958;DHT22;979;51.076;13.748;2024-02-14T12:22:56;14.50;66.70
1958;DHT22;979;51.076;13.748;2024-02-14T12:25:25;14.50;66.80
1958;DHT22;979;51.076;13.748;2024-02-14T12:27:56;14.40;66.80
1958;DHT22;979;51.076;13.748;2024-02-14T12:30:42;14.50;66.90
1958;DHT22;979;51.076;13.748;2024-02-14T12:33:14;14.50;66.80
1958;DHT22;979;51.076;13.748;2024-02-14T12:35:55;14.50;66.90
1958;DHT22;979;51.076;13.748;2024-02-14T12:38:24;14.60;67.00
1958;DHT22;979;51.076;13.748;2024-02-14T12:40:53;14.60;67.00
1958;DHT22;979;51.076;13.748;2024-02-14T12:43:47;14.70;67.00
1958;DHT22;979;51.076;13.748;2024-02-14T12:46:25;14.90;66.90
1958;DHT22;979;51.076;13.748;2024-02-14T12:48:55;14.80;66.80
1958;DHT22;979;51.076;13.748;2024-02-14T12:51:24;14.70;66.60
1958;DHT22;979;51.076;13.748;2024-02-14T12:54:01;14.90;66.70
1958;DHT22;979;51.076;13.748;2024-02-14T12:56:32;14.90;66.70
1958;DHT22;979;51.076;13.748;2024-02-14T12:58:59;15.00;67.30
1958;DHT22;979;51.076;13.748;2024-02-14T13:01:29;14.90;66.70
1958;DHT22;979;51.076;13.748;2024-02-14T13:03:59;14.90;66.60
1958;DHT22;979;51.076;13.748;2024-02-14T13:06:30;14.90;66.60
1958;DHT22;979;51.076;13.748;2024-02-14T13:08:58;14.90;66.70
1958;DHT22;979;51.076;13.748;2024-02-14T13:14:50;14.80;66.40
1958;DHT22;979;51.076;13.748;2024-02-14T13:17:39;14.90;66.70
1958;DHT22;979;51.076;13.748;2024-02-14T13:23:42;14.70;66.40
1958;DHT22;979;51.076;13.748;2024-02-14T13:26:10;14.80;66.80
1958;DHT22;979;51.076;13.748;2024-02-14T13:28:43;14.80;66.70
1958;DHT22;979;51.076;13.748;2024-02-14T13:31:54;14.90;67.00
1958;DHT22;979;51.076;13.748;2024-02-14T13:34:55;15.10;66.80
1958;DHT22;979;51.076;13.748;2024-02-14T13:42:21;15.10;66.80
1958;DHT22;979;51.076;13.748;2024-02-14T13:44:59;15.10;66.60
1958;DHT22;979;51.076;13.748;2024-02-14T13:47:28;15.00;66.70
1958;DHT22;979;51.076;13.748;2024-02-14T13:49:59;14.90;66.30
1958;DHT22;979;51.076;13.748;2024-02-14T13:52:38;14.90;66.70
1958;DHT22;979;51.076;13.748;2024-02-14T13:55:15;14.80;66.80
1958;DHT22;979;51.076;13.748;2024-02-14T17:48:42;13.80;69.00
1958;DHT22;979;51.076;13.748;2024-02-14T17:51:16;13.80;69.50
1958;DHT22;979;51.076;13.748;2024-02-14T17:53:53;13.80;69.50
1958;DHT22;979;51.076;13.748;2024-02-14T17:56:25;13.90;69.60
1958;DHT22;979;51.076;13.748;2024-02-14T17:59:16;13.90;69.50
1958;DHT22;979;51.076;13.748;2024-02-14T18:01:54;13.90;69.40
1958;DHT22;979;51.076;13.748;2024-02-14T18:04:35;13.90;69.60
1958;DHT22;979;51.076;13.748;2024-02-14T18:07:20;13.90;69.60
1958;DHT22;979;51.076;13.748;2024-02-14T18:09:59;13.90;69.50
1958;DHT22;979;51.076;13.748;2024-02-14T18:12:36;13.90;69.60
1958;DHT22;979;51.076;13.748;2024-02-14T18:15:13;13.70;69.10
1958;DHT22;979;51.076;13.748;2024-02-14T18:17:48;14.00;69.50
1958;DHT22;979;51.076;13.748;2024-02-14T18:20:24;13.90;69.70
1958;DHT22;979;51.076;13.748;2024-02-14T18:22:56;13.90;69.50
1958;DHT22;979;51.076;13.748;2024-02-14T18:25:31;14.00;69.90
1958;DHT22;979;51.076;13.748;2024-02-14T18:28:03;14.00;69.50
1958;DHT22;979;51.076;13.748;2024-02-14T18:30:50;14.00;69.40
1958;DHT22;979;51.076;13.748;2024-02-14T18:34:06;14.00;69.70
1958;DHT22;979;51.076;13.748;2024-02-14T18:37:20;13.90;69.20
1958;DHT22;979;51.076;13.748;2024-02-14T18:40:15;13.90;69.20
1958;DHT22;979;51.076;13.748;2024-02-14T18:42:54;13.90;69.60
1958;DHT22;979;51.076;13.748;2024-02-14T18:45:27;13.80;69.50
1958;DHT22;979;51.076;13.748;2024-02-14T18:48:09;13.90;69.70
1958;DHT22;979;51.076;13.748;2024-02-14T18:50:43;13.70;69.60
1958;DHT22;979;51.076;13.748;2024-02-14T18:53:18;13.80;69.60
1958;DHT22;979;51.076;13.748;2024-02-14T18:55:53;13.80;69.70
1958;DHT22;979;51.076;13.748;2024-02-14T18:58:27;13.90;69.90
1958;DHT22;979;51.076;13.748;2024-02-14T19:00:58;13.90;69.80
1958;DHT22;979;51.076;13.748;2024-02-14T19:03:30;13.90;69.80
1958;DHT22;979;51.076;13.748;2024-02-14T19:06:06;13.90;69.70
1958;DHT22;979;51.076;13.748;2024-02-14T19:08:41;13.90;69.90
1958;DHT22;979;51.076;13.748;2024-02-14T19:11:10;13.90;70.10
1958;DHT22;979;51.076;13.748;2024-02-14T19:13:47;13.90;69.90
1958;DHT22;979;51.076;13.748;2024-02-14T19:16:20;13.90;70.00
1958;DHT22;979;51.076;13.748;2024-02-14T19:18:59;13.80;69.90
1958;DHT22;979;51.076;13.748;2024-02-14T19:21:38;13.70;69.90
1958;DHT22;979;51.076;13.748;2024-02-14T19:24:37;13.80;69.80
1958;DHT22;979;51.076;13.748;2024-02-14T19:27:25;13.80;70.10
1958;DHT22;979;51.076;13.748;2024-02-14T19:29:59;13.80;69.80
1958;DHT22;979;51.076;13.748;2024-02-14T19:32:38;13.90;70.20
1958;DHT22;979;51.076;13.748;2024-02-14T19:35:23;13.90;70.00
1958;DHT22;979;51.076;13.748;2024-02-14T19:38:32;13.90;70.10
1958;DHT22;979;51.076;13.748;2024-02-14T19:41:16;13.80;70.30
1958;DHT22;979;51.076;13.748;2024-02-14T19:44:35;14.00;70.10
1958;DHT22;979;51.076;13.748;2024-02-14T19:46:53;13.80;70.10
1958;DHT22;979;51.076;13.748;2024-02-14T19:49:37;13.80;69.90
1958;DHT22;979;51.076;13.748;2024-02-14T19:52:19;13.60;69.60
1958;DHT22;979;51.076;13.748;2024-02-14T19:55:09;13.80;70.10
1958;DHT22;979;51.076;13.748;2024-02-14T20:10:57;14.00;69.60
1958;DHT22;979;51.076;13.748;2024-02-14T20:14:14;14.00;69.80
1958;DHT22;979;51.076;13.748;2024-02-14T20:17:47;14.00;69.70
1958;DHT22;979;51.076;13.748;2024-02-14T20:20:37;14.00;69.70
1958;DHT22;979;51.076;13.748;2024-02-14T20:31:30;13.80;69.40
1958;DHT22;979;51.076;13.748;2024-02-14T20:43:48;14.10;69.60
1958;DHT22;979;51.076;13.748;2024-02-14T20:51:58;14.00;69.60
1958;DHT22;979;51.076;13.748;2024-02-14T20:55:30;13.90;69.60
1958;DHT22;979;51.076;13.748;2024-02-14T21:03:20;13.70;69.60
1958;DHT22;979;51.076;13.748;2024-02-14T21:26:42;13.80;69.60
1958;DHT22;979;51.076;13.748;2024-02-14T21:29:59;13.80;69.70
1958;DHT22;979;51.076;13.748;2024-02-14T21:32:43;13.50;69.60
1958;DHT22;979;51.076;13.748;2024-02-14T21:35:42;13.30;69.90
1958;DHT22;979;51.076;13.748;2024-02-14T21:38:50;13.40;69.70
1958;DHT22;979;51.076;13.748;2024-02-14T21:41:49;13.50;70.10
1958;DHT22;979;51.076;13.748;2024-02-14T21:45:08;13.40;70.30
1958;DHT22;979;51.076;13.748;2024-02-14T21:48:23;13.40;70.40
1958;DHT22;979;51.076;13.748;2024-02-14T21:51:23;13.40;70.50
1958;DHT22;979;51.076;13.748;2024-02-14T21:53:58;13.10;70.20
1958;DHT22;979;51.076;13.748;2024-02-14T21:57:20;13.30;71.00
1958;DHT22;979;51.076;13.748;2024-02-14T22:00:34;13.30;70.80
1958;DHT22;979;51.076;13.748;2024-02-14T22:03:32;13.40;71.30
1958;DHT22;979;51.076;13.748;2024-02-14T22:07:08;13.30;71.20
1958;DHT22;979;51.076;13.748;2024-02-14T22:10:28;13.10;70.90
1958;DHT22;979;51.076;13.748;2024-02-14T22:13:49;13.20;71.00
1958;DHT22;979;51.076;13.748;2024-02-14T22:16:40;13.30;71.10
1958;DHT22;979;51.076;13.748;2024-02-14T22:20:00;13.30;71.20
1958;DHT22;979;51.076;13.748;2024-02-14T22:22:51;13.30;71.20
1958;DHT22;979;51.076;13.748;2024-02-14T23:33:25;12.20;75.20
1958;DHT22;979;51.076;13.748;2024-02-14T23:44:46;12.10;75.70
1958;DHT22;979;51.076;13.748;2024-02-14T23:47:37;11.90;75.90
1958;DHT22;979;51.076;13.748;2024-02-14T23:50:18;12.10;76.50
1958;DHT22;979;51.076;13.748;2024-02-14T23:52:57;12.10;76.20
1958;DHT22;979;51.076;13.748;2024-02-14T23:55:31;12.10;76.70
1958;DHT22;979;51.076;13.748;2024-02-14T23:58:42;12.40;77.20
